Terminal Aerodrome Forecast
Issued by NWS Portland, OR

Home | Current Version | Previous Version | Text Only | Print | Product List | Glossary On
Versions: 1 2 3 4 5 6 7 8 9 10 11 12 13 14 15 16 17 18
000
FTUS46 KPQR 170528
TAFAST
TAF
KAST 170528Z 1706/1806 21005KT P6SM BKN030
     FM171000 19008KT P6SM SCT015 BKN025 OVC050
      TEMPO 1712/1714 -RA
     FM171400 20012G18KT 5SM -RA BR BKN015 OVC030
     FM172100 25010KT P6SM VCSH BKN020 BKN045=

USA.gov is the U.S. government's official web portal to all federal, state and local government web resources and services.